Time;durP1;ratioP1;P1;durP2;ratioP2;P2;SDS_P1;SDS_P2;PMS_P1;PMS_P2;Temp;Humidity;BMP_temperature;BMP_pressure;BME280_temperature;BME280_humidity;BME280_pressure;Samples;Min_cycle;Max_cycle;Signal;HPM_P1;HPM_P2
2022/03/29 00:00:30;;;;;;;1.38;1.20;;;20.80;59.40;;;;;;5015977;28;20112;-69
2022/03/29 00:02:55;;;;;;;3.00;1.35;;;20.70;59.40;;;;;;5015883;28;20022;-69
2022/03/29 00:05:21;;;;;;;1.42;1.33;;;20.80;59.50;;;;;;5014653;28;20061;-69
2022/03/29 00:07:47;;;;;;;1.73;1.25;;;20.80;59.50;;;;;;5014896;28;20056;-69
2022/03/29 00:10:12;;;;;;;2.60;1.40;;;20.80;59.40;;;;;;5016037;28;20037;-69
2022/03/29 00:12:38;;;;;;;4.47;1.42;;;20.70;59.40;;;;;;5014753;28;20026;-70
2022/03/29 00:15:05;;;;;;;2.95;1.40;;;20.80;59.40;;;;;;5014600;28;20474;-70
2022/03/29 00:17:31;;;;;;;1.73;1.25;;;20.80;59.40;;;;;;5014440;28;20108;-70
2022/03/29 00:19:57;;;;;;;1.38;1.27;;;20.80;59.40;;;;;;5014435;28;20106;-70
2022/03/29 00:22:23;;;;;;;1.77;1.25;;;20.70;59.40;;;;;;5015345;28;20025;-70
2022/03/29 00:24:49;;;;;;;2.92;1.33;;;20.80;59.40;;;;;;5026507;28;20033;-69
2022/03/29 00:27:15;;;;;;;2.13;1.40;;;20.70;59.40;;;;;;5035425;28;20026;-69
2022/03/29 00:29:40;;;;;;;1.60;1.40;;;20.80;59.40;;;;;;5035192;28;20048;-69
2022/03/29 00:32:07;;;;;;;1.77;1.40;;;20.80;59.40;;;;;;5026115;28;20477;-69
2022/03/29 00:34:34;;;;;;;1.77;1.33;;;20.80;59.40;;;;;;5013885;28;20033;-70
2022/03/29 00:37:00;;;;;;;2.05;1.35;;;20.80;59.50;;;;;;5015426;28;20030;-69
2022/03/29 00:39:25;;;;;;;2.17;1.25;;;20.80;59.50;;;;;;5015232;28;20109;-69
2022/03/29 00:41:51;;;;;;;3.38;1.40;;;20.80;59.40;;;;;;5015286;28;20034;-69
2022/03/29 00:44:17;;;;;;;2.20;1.35;;;20.80;59.40;;;;;;5013889;28;20086;-69
2022/03/29 00:46:42;;;;;;;1.42;1.20;;;20.80;59.40;;;;;;5014061;28;20029;-69
2022/03/29 00:49:08;;;;;;;1.60;1.15;;;20.80;59.40;;;;;;5015059;28;20068;-69
2022/03/29 00:51:35;;;;;;;1.55;1.27;;;20.80;59.40;;;;;;5013720;28;20025;-69
2022/03/29 00:54:00;;;;;;;1.65;1.30;;;20.80;59.40;;;;;;5014058;28;20022;-69
2022/03/29 00:56:26;;;;;;;1.75;1.40;;;20.80;59.50;;;;;;5013644;28;20033;-69
2022/03/29 00:58:52;;;;;;;1.38;1.23;;;20.80;59.40;;;;;;5013750;28;20040;-69
2022/03/29 01:01:17;;;;;;;1.40;1.30;;;20.80;59.50;;;;;;5014043;28;20026;-70
2022/03/29 01:03:43;;;;;;;2.03;1.50;;;20.80;59.40;;;;;;5014447;28;20142;-70
2022/03/29 01:06:09;;;;;;;1.35;1.25;;;20.80;59.50;;;;;;5013652;28;20022;-70
2022/03/29 01:08:35;;;;;;;1.30;1.20;;;20.80;59.40;;;;;;5014714;28;20030;-70
2022/03/29 01:11:12;;;;;;;2.40;1.27;;;20.80;59.50;;;;;;5013640;28;20470;-70
2022/03/29 01:13:38;;;;;;;1.88;1.48;;;20.80;59.50;;;;;;5014639;28;20397;-70
2022/03/29 01:18:48;;;;;;;1.20;1.10;;;20.70;59.40;;;;;;5013402;28;20575;-69
2022/03/29 01:21:17;;;;;;;2.03;1.30;;;20.80;59.50;;;;;;5013397;28;20034;-69
2022/03/29 01:23:44;;;;;;;1.98;1.40;;;20.80;59.50;;;;;;5014917;28;20037;-69
2022/03/29 01:26:09;;;;;;;1.48;1.23;;;20.80;59.50;;;;;;5033144;28;20013;-69
2022/03/29 01:28:35;;;;;;;1.65;1.00;;;20.80;59.50;;;;;;5032917;28;20089;-69
2022/03/29 01:31:01;;;;;;;1.90;1.42;;;20.80;59.50;;;;;;5032752;28;20021;-69
2022/03/29 01:33:26;;;;;;;1.30;1.20;;;20.80;59.50;;;;;;5012803;28;20397;-69
2022/03/29 01:35:52;;;;;;;1.92;1.40;;;20.80;59.50;;;;;;5013369;28;20080;-70
2022/03/29 01:38:18;;;;;;;2.42;1.30;;;20.80;59.50;;;;;;5013086;28;20110;-69
2022/03/29 01:40:44;;;;;;;1.50;1.40;;;20.80;59.50;;;;;;5014173;28;20026;-69
2022/03/29 01:43:11;;;;;;;1.58;1.17;;;20.80;59.50;;;;;;5014082;28;20526;-69
2022/03/29 01:45:37;;;;;;;2.40;1.65;;;20.80;59.50;;;;;;5012590;28;20369;-69
2022/03/29 01:48:03;;;;;;;2.20;1.50;;;20.80;59.50;;;;;;5013959;28;20084;-69
2022/03/29 01:50:29;;;;;;;2.53;1.42;;;20.80;59.50;;;;;;5013880;28;20025;-70
2022/03/29 01:52:54;;;;;;;2.53;1.50;;;20.80;59.50;;;;;;5012884;28;20088;-70
2022/03/29 01:55:21;;;;;;;2.03;1.33;;;20.70;59.50;;;;;;5012917;28;20461;-70
2022/03/29 01:57:46;;;;;;;1.55;1.30;;;20.80;59.40;;;;;;5012539;28;20087;-70
2022/03/29 02:00:31;;;;;;;2.50;1.30;;;20.80;59.50;;;;;;5012595;28;20427;-70
2022/03/29 02:02:57;;;;;;;1.30;1.20;;;20.80;59.90;;;;;;5012561;28;20052;-69
2022/03/29 02:05:23;;;;;;;1.88;1.30;;;20.80;59.50;;;;;;5012666;28;20028;-69
2022/03/29 02:07:50;;;;;;;1.88;1.40;;;20.80;59.50;;;;;;5012204;28;20026;-69
2022/03/29 02:10:19;;;;;;;2.53;1.50;;;20.70;59.50;;;;;;5012227;28;20476;-69
2022/03/29 02:12:46;;;;;;;1.52;1.23;;;20.80;59.50;;;;;;5012288;28;20022;-69
2022/03/29 02:15:12;;;;;;;3.33;1.30;;;20.80;59.50;;;;;;5013686;28;20026;-69
2022/03/29 02:17:37;;;;;;;1.85;1.30;;;20.80;59.50;;;;;;5013328;28;20048;-69
2022/03/29 02:20:05;;;;;;;1.02;1.00;;;20.80;59.50;;;;;;5012475;28;20108;-69
2022/03/29 02:22:32;;;;;;;2.10;1.42;;;20.80;59.50;;;;;;5012013;28;20048;-69
2022/03/29 02:24:58;;;;;;;2.10;1.30;;;20.80;59.60;;;;;;5024380;28;20083;-69
2022/03/29 02:27:23;;;;;;;2.08;1.48;;;20.80;59.50;;;;;;5033138;28;20026;-69
2022/03/29 02:29:49;;;;;;;1.80;1.20;;;20.80;59.50;;;;;;5032875;28;20025;-69
2022/03/29 02:32:15;;;;;;;2.72;1.23;;;20.70;59.50;;;;;;5021555;28;20026;-69
2022/03/29 02:34:40;;;;;;;1.77;1.40;;;20.80;59.50;;;;;;5013287;28;20026;-69
2022/03/29 02:37:06;;;;;;;2.08;1.33;;;20.80;59.50;;;;;;5013144;28;20468;-69
2022/03/29 02:39:32;;;;;;;1.42;1.30;;;20.80;59.50;;;;;;5013059;28;20104;-69
2022/03/29 02:41:57;;;;;;;2.15;1.35;;;20.80;59.50;;;;;;5012178;28;20057;-69
2022/03/29 02:44:23;;;;;;;1.30;1.20;;;20.80;59.50;;;;;;5012563;28;20125;-69
2022/03/29 02:46:49;;;;;;;4.72;1.50;;;20.80;59.50;;;;;;5013000;28;20026;-69
2022/03/29 02:49:14;;;;;;;1.90;1.40;;;20.80;59.50;;;;;;5013004;28;20378;-69
2022/03/29 02:51:40;;;;;;;2.35;1.50;;;20.70;59.50;;;;;;5012953;28;20032;-69
2022/03/29 02:54:05;;;;;;;1.90;1.40;;;20.80;59.50;;;;;;5011746;28;20036;-69
2022/03/29 02:56:31;;;;;;;1.52;1.35;;;20.80;59.50;;;;;;5013066;28;20030;-69
2022/03/29 02:58:57;;;;;;;1.50;1.38;;;20.80;59.60;;;;;;5012496;28;20060;-69
2022/03/29 03:01:22;;;;;;;1.38;1.25;;;20.70;59.50;;;;;;5012898;28;20558;-69
2022/03/29 03:03:48;;;;;;;1.90;1.58;;;20.80;59.50;;;;;;5012701;28;20496;-69
2022/03/29 03:06:14;;;;;;;1.90;1.15;;;20.80;59.60;;;;;;5012825;28;20051;-69
2022/03/29 03:08:40;;;;;;;1.85;1.45;;;20.80;59.60;;;;;;5011424;28;20201;-69
2022/03/29 03:11:06;;;;;;;2.05;1.33;;;20.80;59.50;;;;;;5011506;28;20449;-69
2022/03/29 03:13:33;;;;;;;1.58;1.25;;;20.80;59.60;;;;;;5011602;28;20045;-69
2022/03/29 03:15:58;;;;;;;1.73;1.30;;;20.80;59.50;;;;;;5012705;28;20041;-69
2022/03/29 03:18:24;;;;;;;2.85;1.63;;;20.80;59.50;;;;;;5012535;28;20034;-69
2022/03/29 03:20:50;;;;;;;1.38;1.20;;;20.70;59.50;;;;;;5011483;28;20068;-69
2022/03/29 03:23:15;;;;;;;1.42;1.33;;;20.80;59.60;;;;;;5011390;28;20424;-69
2022/03/29 03:25:41;;;;;;;3.83;1.25;;;20.70;59.50;;;;;;5030558;28;20095;-69
2022/03/29 03:28:07;;;;;;;1.58;1.20;;;20.70;59.50;;;;;;5032035;28;20052;-69
2022/03/29 03:30:33;;;;;;;1.50;1.40;;;20.70;59.50;;;;;;5032253;28;20468;-69
2022/03/29 03:32:59;;;;;;;2.00;1.25;;;20.70;59.50;;;;;;5015996;28;20086;-70
2022/03/29 03:35:24;;;;;;;2.10;1.23;;;20.70;59.60;;;;;;5012315;28;20059;-70
2022/03/29 03:37:50;;;;;;;1.98;1.27;;;20.70;59.50;;;;;;5011351;28;20552;-69
2022/03/29 03:40:16;;;;;;;1.30;1.10;;;20.70;59.50;;;;;;5012537;28;20037;-69
2022/03/29 03:42:42;;;;;;;1.73;1.20;;;20.70;59.50;;;;;;5010946;28;20091;-69
2022/03/29 03:45:08;;;;;;;1.70;1.15;;;20.80;59.60;;;;;;5012409;28;20104;-69
2022/03/29 03:47:34;;;;;;;1.55;1.20;;;20.80;59.60;;;;;;5011020;28;20029;-69
2022/03/29 03:50:00;;;;;;;1.88;1.40;;;20.80;59.60;;;;;;5011295;28;20490;-69
2022/03/29 03:52:26;;;;;;;1.95;1.10;;;20.80;59.60;;;;;;5012351;28;20109;-69
2022/03/29 03:54:51;;;;;;;1.55;1.30;;;20.80;59.60;;;;;;5010971;28;20108;-69
2022/03/29 03:57:18;;;;;;;2.08;1.35;;;20.80;59.60;;;;;;5011061;28;20042;-70
2022/03/29 03:59:48;;;;;;;1.80;1.50;;;20.70;59.60;;;;;;5012105;28;20089;-70
2022/03/29 04:02:16;;;;;;;2.22;1.10;;;20.80;59.60;;;;;;5012440;28;20083;-69
2022/03/29 04:04:43;;;;;;;2.15;1.45;;;20.80;59.60;;;;;;5012323;28;20022;-69
2022/03/29 04:07:08;;;;;;;1.98;1.38;;;20.70;59.60;;;;;;5012084;28;20026;-69
2022/03/29 04:09:35;;;;;;;1.77;1.30;;;20.80;59.70;;;;;;5012105;28;20108;-70
2022/03/29 04:12:05;;;;;;;2.80;1.38;;;20.70;59.60;;;;;;5012146;28;20469;-70
2022/03/29 04:14:30;;;;;;;2.38;1.40;;;20.80;59.60;;;;;;5010979;28;20547;-70
2022/03/29 04:16:56;;;;;;;2.90;1.77;;;20.70;59.60;;;;;;5010740;28;20030;-70
2022/03/29 04:19:22;;;;;;;2.38;1.40;;;20.70;59.60;;;;;;5010952;28;20415;-69
2022/03/29 04:21:47;;;;;;;3.47;1.48;;;20.70;59.60;;;;;;5012386;28;20037;-69
2022/03/29 04:24:13;;;;;;;2.72;1.40;;;20.70;59.60;;;;;;5018097;28;20029;-69
2022/03/29 04:26:39;;;;;;;2.67;1.42;;;20.70;59.60;;;;;;5031637;28;20041;-69
2022/03/29 04:29:04;;;;;;;3.08;1.40;;;20.70;59.60;;;;;;5030262;28;20032;-69
2022/03/29 04:31:34;;;;;;;2.03;1.48;;;20.70;59.60;;;;;;5030168;28;20064;-69
2022/03/29 04:34:05;;;;;;;1.73;1.20;;;20.70;59.60;;;;;;5033086;28;20108;-69
2022/03/29 04:36:34;;;;;;;2.25;1.42;;;20.70;59.60;;;;;;5062299;28;20060;-69
2022/03/29 04:39:03;;;;;;;2.42;1.30;;;20.70;59.60;;;;;;5034700;28;20036;-69
2022/03/29 04:41:32;;;;;;;1.25;1.10;;;20.70;59.70;;;;;;5032388;28;20139;-69
2022/03/29 04:43:58;;;;;;;1.63;1.38;;;20.70;59.70;;;;;;5032327;28;20037;-69
2022/03/29 04:46:24;;;;;;;3.05;1.55;;;20.70;59.70;;;;;;5035712;28;20472;-70
2022/03/29 04:48:52;;;;;;;3.45;2.25;;;20.80;59.50;;;;;;5064285;28;20028;-70
2022/03/29 04:51:20;;;;;;;3.35;2.38;;;20.70;58.70;;;;;;5032940;28;20017;-70
2022/03/29 04:53:46;;;;;;;5.22;2.45;;;20.60;58.40;;;;;;5066157;28;20504;-70
2022/03/29 04:56:12;;;;;;;3.55;2.10;;;20.50;58.30;;;;;;5034589;28;20030;-69
2022/03/29 04:58:38;;;;;;;3.80;2.40;;;20.40;58.30;;;;;;5034776;28;20022;-70
2022/03/29 05:01:04;;;;;;;3.47;2.13;;;20.40;58.30;;;;;;5034643;28;20033;-70
2022/03/29 05:03:31;;;;;;;3.45;2.15;;;20.40;58.30;;;;;;5034728;28;20035;-70
2022/03/29 05:05:57;;;;;;;2.70;2.20;;;20.30;58.20;;;;;;5049897;28;20076;-70
2022/03/29 05:08:23;;;;;;;2.45;2.15;;;20.30;58.10;;;;;;5034676;28;20068;-70
2022/03/29 05:10:48;;;;;;;4.35;2.40;;;20.30;58.10;;;;;;5034416;28;20025;-70
2022/03/29 05:13:17;;;;;;;3.15;2.13;;;20.30;58.20;;;;;;5034702;28;20443;-70
2022/03/29 05:15:43;;;;;;;3.13;2.38;;;20.20;58.00;;;;;;5066331;28;20104;-70
2022/03/29 05:18:09;;;;;;;5.88;2.47;;;20.20;58.00;;;;;;5034502;28;20544;-70
2022/03/29 05:20:34;;;;;;;8.20;2.58;;;20.20;58.00;;;;;;5049764;28;20029;-70
2022/03/29 05:23:01;;;;;;;6.88;2.70;;;20.20;58.00;;;;;;5034184;28;20026;-71
2022/03/29 05:25:27;;;;;;;5.93;2.95;;;20.10;58.00;;;;;;5033368;28;20017;-71
2022/03/29 05:27:53;;;;;;;10.07;3.53;;;20.10;57.90;;;;;;5033392;28;20025;-71
2022/03/29 05:30:19;;;;;;;10.43;3.85;;;20.10;57.90;;;;;;5034774;28;20026;-71
2022/03/29 05:32:45;;;;;;;17.67;4.00;;;20.10;58.00;;;;;;5032200;28;20384;-71
2022/03/29 05:35:11;;;;;;;12.68;3.53;;;20.10;58.00;;;;;;5033091;28;20056;-70
2022/03/29 05:37:37;;;;;;;11.90;4.10;;;20.10;58.10;;;;;;5033299;28;20484;-70
2022/03/29 05:40:04;;;;;;;11.98;3.92;;;20.10;58.10;;;;;;5030543;28;20491;-71
2022/03/29 05:42:30;;;;;;;14.82;3.95;;;20.10;58.00;;;;;;5030593;28;20061;-71
2022/03/29 05:44:55;;;;;;;12.75;3.45;;;20.10;58.00;;;;;;5031083;28;20111;-71
2022/03/29 05:50:06;;;;;;;9.27;3.83;;;20.10;58.00;;;;;;5031996;28;20048;-71
2022/03/29 05:52:31;;;;;;;9.98;3.67;;;20.00;58.10;;;;;;5032815;28;20022;-71
2022/03/29 05:54:57;;;;;;;6.10;3.10;;;20.00;58.10;;;;;;5033225;28;20099;-71
2022/03/29 05:57:23;;;;;;;12.13;3.83;;;20.00;58.00;;;;;;5033686;28;20503;-71
2022/03/29 05:59:48;;;;;;;9.68;3.78;;;20.00;58.00;;;;;;5033623;28;20028;-71
2022/03/29 06:02:14;;;;;;;10.10;3.58;;;20.00;58.00;;;;;;5032488;28;20037;-71
2022/03/29 06:04:40;;;;;;;7.80;3.72;;;20.00;58.00;;;;;;5033677;28;20381;-71
2022/03/29 06:07:05;;;;;;;11.63;4.03;;;20.00;58.00;;;;;;5030726;28;20611;-71
2022/03/29 06:09:32;;;;;;;10.23;3.47;;;20.00;58.00;;;;;;5033218;28;20021;-71
2022/03/29 06:11:57;;;;;;;13.23;3.83;;;20.00;58.00;;;;;;5033396;28;20396;-71
2022/03/29 06:14:23;;;;;;;13.10;3.85;;;19.90;57.90;;;;;;5032286;28;20021;-71
2022/03/29 06:16:49;;;;;;;9.43;3.42;;;19.90;57.90;;;;;;5033113;28;20037;-71
2022/03/29 06:19:14;;;;;;;12.60;3.60;;;20.00;57.90;;;;;;5032185;28;20025;-71
2022/03/29 06:21:40;;;;;;;8.80;3.80;;;19.90;57.80;;;;;;5033173;28;20034;-71
2022/03/29 06:24:07;;;;;;;10.85;3.95;;;19.90;57.80;;;;;;5032711;28;20032;-71
2022/03/29 06:26:36;;;;;;;7.38;3.42;;;19.90;57.90;;;;;;5031930;28;20507;-71
2022/03/29 06:29:05;;;;;;;7.65;3.50;;;19.90;57.80;;;;;;5031741;28;20507;-71
2022/03/29 06:31:31;;;;;;;9.55;4.10;;;19.90;57.90;;;;;;5028799;28;20018;-71
2022/03/29 06:33:57;;;;;;;8.48;3.60;;;19.90;57.80;;;;;;5012229;28;20484;-72
2022/03/29 06:36:23;;;;;;;9.77;3.65;;;19.90;57.80;;;;;;5011857;28;20026;-72
2022/03/29 06:38:49;;;;;;;12.07;3.63;;;19.90;57.70;;;;;;5012028;28;20037;-72
2022/03/29 06:41:15;;;;;;;11.35;3.45;;;19.90;57.80;;;;;;5013169;28;20030;-72
2022/03/29 06:43:41;;;;;;;10.50;3.55;;;19.90;57.70;;;;;;5011814;28;20038;-72
2022/03/29 06:46:08;;;;;;;11.02;4.00;;;19.90;57.60;;;;;;5030942;28;20438;-71
2022/03/29 06:48:35;;;;;;;10.23;3.50;;;19.90;57.60;;;;;;5015260;28;20030;-71
2022/03/29 06:51:00;;;;;;;8.82;4.20;;;19.90;57.60;;;;;;5031252;28;20025;-72
2022/03/29 06:53:26;;;;;;;9.55;3.38;;;19.90;57.60;;;;;;5032623;28;20017;-72
2022/03/29 06:55:52;;;;;;;8.57;4.05;;;19.80;57.60;;;;;;5032518;28;20104;-72
2022/03/29 06:58:18;;;;;;;6.70;3.10;;;19.80;57.60;;;;;;5032662;28;20100;-72
2022/03/29 07:00:43;;;;;;;8.52;3.92;;;19.80;57.50;;;;;;5031451;28;20078;-72
2022/03/29 07:03:10;;;;;;;7.53;3.65;;;19.80;57.50;;;;;;5032293;28;20025;-72
2022/03/29 07:05:38;;;;;;;6.70;3.70;;;19.80;57.50;;;;;;5031086;28;20171;-72
2022/03/29 07:08:05;;;;;;;6.95;3.20;;;19.80;57.50;;;;;;5032470;28;20013;-72
2022/03/29 07:13:15;;;;;;;8.63;3.25;;;19.80;57.50;;;;;;5031258;28;20024;-72
2022/03/29 07:15:41;;;;;;;7.05;3.78;;;19.80;57.50;;;;;;5031212;28;20025;-72
2022/03/29 07:18:07;;;;;;;5.70;3.72;;;19.80;57.50;;;;;;5027787;28;20046;-72
2022/03/29 07:20:33;;;;;;;6.95;3.47;;;19.80;57.40;;;;;;5012513;28;20045;-72
2022/03/29 07:22:59;;;;;;;8.48;3.55;;;19.80;57.40;;;;;;5012371;28;20041;-72
2022/03/29 07:25:26;;;;;;;10.38;3.88;;;19.80;57.40;;;;;;5027093;28;20116;-72
2022/03/29 07:27:53;;;;;;;9.88;3.92;;;19.70;57.40;;;;;;5032190;28;20021;-72
2022/03/29 07:30:20;;;;;;;7.53;3.42;;;19.70;57.40;;;;;;5031075;28;20431;-72
2022/03/29 07:32:48;;;;;;;6.47;3.35;;;19.80;57.30;;;;;;5031126;28;20022;-72
2022/03/29 07:35:15;;;;;;;8.70;3.28;;;19.80;57.30;;;;;;5030958;28;20474;-72
2022/03/29 07:37:41;;;;;;;9.70;3.55;;;19.80;57.30;;;;;;5032186;28;20055;-72
2022/03/29 07:40:08;;;;;;;7.82;3.40;;;19.70;57.30;;;;;;5030820;28;20480;-72
2022/03/29 07:42:35;;;;;;;6.53;3.47;;;19.80;57.30;;;;;;5032163;28;20044;-72
2022/03/29 07:45:03;;;;;;;10.55;3.13;;;19.70;57.20;;;;;;5031917;28;20053;-72
2022/03/29 07:47:29;;;;;;;7.20;3.35;;;19.70;57.20;;;;;;5032212;28;20101;-72
2022/03/29 07:49:55;;;;;;;9.23;3.65;;;19.70;57.20;;;;;;5030697;28;20026;-72
2022/03/29 07:52:21;;;;;;;8.73;3.25;;;19.70;57.20;;;;;;5027855;28;20021;-72
2022/03/29 07:54:47;;;;;;;7.13;3.10;;;19.70;57.20;;;;;;5011182;28;20108;-71
2022/03/29 07:57:12;;;;;;;4.80;2.67;;;19.70;57.20;;;;;;5012332;28;20029;-71
2022/03/29 07:59:38;;;;;;;7.13;3.10;;;19.70;57.10;;;;;;5012246;28;20484;-72
2022/03/29 08:02:05;;;;;;;4.82;3.05;;;19.70;57.10;;;;;;5011127;28;20544;-72
2022/03/29 08:04:31;;;;;;;11.82;3.90;;;19.70;57.10;;;;;;5010881;28;20114;-72
2022/03/29 08:06:57;;;;;;;7.72;3.65;;;19.70;57.10;;;;;;5012187;28;20101;-72
2022/03/29 08:09:22;;;;;;;7.90;3.97;;;19.70;57.00;;;;;;5016099;28;20485;-72
2022/03/29 08:11:48;;;;;;;4.85;3.05;;;19.70;57.00;;;;;;5015960;28;20072;-71
2022/03/29 08:14:14;;;;;;;7.60;3.10;;;19.70;57.00;;;;;;5015767;28;20091;-72
2022/03/29 08:16:41;;;;;;;4.82;2.95;;;19.70;57.00;;;;;;5015755;28;20084;-72
2022/03/29 08:19:07;;;;;;;7.85;3.50;;;19.70;57.00;;;;;;5014268;28;20033;-72
2022/03/29 08:21:50;;;;;;;10.88;3.63;;;19.70;57.00;;;;;;5014624;28;20408;-72
2022/03/29 08:24:23;;;;;;;5.22;3.30;;;19.70;57.00;;;;;;5021135;28;20088;-72
2022/03/29 08:26:53;;;;;;;6.85;3.05;;;19.70;56.90;;;;;;5034211;28;20032;-72
2022/03/29 08:29:21;;;;;;;6.95;3.25;;;19.60;56.90;;;;;;5034138;28;20472;-72
2022/03/29 08:31:49;;;;;;;7.45;3.38;;;19.70;57.00;;;;;;5034178;28;20487;-72
2022/03/29 08:34:15;;;;;;;7.10;3.40;;;19.70;57.00;;;;;;5033876;28;20666;-72
2022/03/29 08:36:41;;;;;;;7.03;3.25;;;19.70;57.00;;;;;;5034120;28;20033;-72
2022/03/29 08:39:07;;;;;;;7.70;3.55;;;19.60;56.90;;;;;;5034993;28;20169;-72
2022/03/29 08:41:44;;;;;;;5.22;2.85;;;19.70;57.00;;;;;;5034063;28;20075;-72
2022/03/29 08:44:09;;;;;;;5.30;3.20;;;19.70;56.80;;;;;;5034791;28;20045;-72
2022/03/29 08:46:41;;;;;;;5.90;3.55;;;19.60;56.90;;;;;;5034062;28;20044;-72
2022/03/29 08:49:07;;;;;;;5.80;3.10;;;19.70;56.80;;;;;;5033523;28;20514;-72
2022/03/29 08:51:32;;;;;;;8.93;3.40;;;19.60;56.90;;;;;;5033704;28;20105;-72
2022/03/29 08:53:58;;;;;;;5.45;3.33;;;19.60;56.90;;;;;;5016419;28;20396;-72
2022/03/29 08:56:24;;;;;;;6.72;3.55;;;19.60;56.80;;;;;;4997394;28;20053;-72
2022/03/29 08:58:50;;;;;;;6.35;3.10;;;19.60;56.70;;;;;;5013835;28;20034;-72
2022/03/29 09:01:20;;;;;;;8.65;3.50;;;19.60;56.80;;;;;;5013512;28;20022;-72
2022/03/29 09:03:47;;;;;;;6.50;3.08;;;19.70;56.80;;;;;;5014817;28;20033;-72
2022/03/29 09:06:13;;;;;;;7.00;3.20;;;19.60;56.70;;;;;;5013729;28;20010;-72
2022/03/29 09:08:43;;;;;;;6.68;3.28;;;19.60;56.70;;;;;;5014978;28;20101;-72
2022/03/29 09:11:08;;;;;;;5.03;2.97;;;19.70;56.80;;;;;;5014909;28;20021;-72
2022/03/29 09:13:34;;;;;;;5.05;3.10;;;19.60;56.70;;;;;;5014665;28;20562;-72
2022/03/29 09:16:01;;;;;;;5.03;2.85;;;19.60;56.70;;;;;;5014531;28;20018;-72
2022/03/29 09:18:27;;;;;;;6.65;3.28;;;19.60;56.70;;;;;;5014811;28;20044;-72
2022/03/29 09:21:07;;;;;;;7.18;3.17;;;19.60;56.70;;;;;;5014609;28;20025;-72
2022/03/29 09:23:34;;;;;;;6.10;3.33;;;19.70;56.50;;;;;;5015096;28;20041;-72
2022/03/29 09:26:00;;;;;;;5.55;3.33;;;19.60;56.70;;;;;;5033274;28;20095;-72
2022/03/29 09:28:27;;;;;;;7.15;2.95;;;19.60;56.60;;;;;;5033079;28;20072;-72
2022/03/29 09:30:53;;;;;;;6.03;3.28;;;19.60;56.60;;;;;;5032611;28;20033;-72
2022/03/29 09:33:32;;;;;;;6.63;3.20;;;19.60;56.70;;;;;;5032968;28;20026;-72
2022/03/29 09:36:07;;;;;;;5.15;3.08;;;19.70;56.40;;;;;;5033141;28;20022;-72
2022/03/29 09:38:40;;;;;;;5.20;3.00;;;19.60;56.60;;;;;;5034208;28;20032;-72
2022/03/29 09:41:18;;;;;;;5.55;3.25;;;19.60;56.60;;;;;;5032913;28;20037;-72
2022/03/29 09:43:44;;;;;;;5.63;3.05;;;19.60;56.60;;;;;;5032839;28;20135;-72
2022/03/29 09:46:09;;;;;;;4.28;2.97;;;19.60;56.60;;;;;;5032680;28;20049;-72
2022/03/29 09:48:35;;;;;;;3.90;2.90;;;19.60;56.60;;;;;;5034002;28;20114;-72
2022/03/29 09:51:02;;;;;;;6.38;3.13;;;19.60;56.60;;;;;;5033806;28;20399;-72
2022/03/29 09:53:35;;;;;;;6.47;3.30;;;19.60;56.50;;;;;;5020513;28;20022;-72
2022/03/29 09:56:01;;;;;;;7.47;3.28;;;19.60;56.50;;;;;;5012964;28;20053;-72
2022/03/29 09:58:27;;;;;;;5.93;3.10;;;19.60;56.50;;;;;;5013961;28;20103;-72
2022/03/29 10:00:55;;;;;;;5.97;3.58;;;19.60;56.50;;;;;;4996188;28;20145;-72
2022/03/29 10:03:20;;;;;;;5.05;2.90;;;19.60;56.50;;;;;;5012515;28;20096;-72
2022/03/29 10:05:46;;;;;;;7.50;3.17;;;19.60;56.50;;;;;;5012694;28;20420;-72
2022/03/29 10:11:04;;;;;;;4.17;2.70;;;19.60;56.40;;;;;;5012840;28;20037;-72
2022/03/29 10:13:30;;;;;;;5.25;3.15;;;19.60;56.50;;;;;;5013785;28;20265;-72
2022/03/29 10:15:56;;;;;;;8.90;3.17;;;19.60;56.50;;;;;;5013336;28;20036;-72
2022/03/29 10:18:22;;;;;;;7.15;3.20;;;19.60;56.50;;;;;;5012457;28;20018;-72
2022/03/29 10:20:48;;;;;;;8.02;3.08;;;19.60;56.50;;;;;;5013671;28;20029;-72
2022/03/29 10:23:21;;;;;;;5.93;3.38;;;19.60;56.40;;;;;;5013487;28;20025;-72
2022/03/29 10:25:47;;;;;;;4.90;2.92;;;19.60;56.40;;;;;;5031179;28;20029;-72
2022/03/29 10:28:13;;;;;;;6.95;3.30;;;19.60;56.40;;;;;;5031817;28;20083;-72
2022/03/29 10:30:42;;;;;;;6.80;3.15;;;19.60;56.40;;;;;;5031551;28;20021;-72
2022/03/29 10:33:23;;;;;;;5.88;3.05;;;19.60;56.40;;;;;;5031858;28;20017;-72
2022/03/29 10:36:11;;;;;;;3.70;2.78;;;19.70;56.20;;;;;;5033220;28;20042;-72
2022/03/29 10:38:49;;;;;;;7.50;3.03;;;19.70;56.30;;;;;;5033101;28;20396;-72
2022/03/29 10:41:30;;;;;;;5.53;3.28;;;19.70;56.30;;;;;;5032931;28;20163;-72
2022/03/29 10:44:08;;;;;;;5.32;2.85;;;19.70;56.30;;;;;;5032426;28;20049;-72
2022/03/29 10:46:44;;;;;;;4.95;2.97;;;19.60;56.30;;;;;;5031976;28;20029;-72
2022/03/29 10:49:18;;;;;;;5.07;3.20;;;19.60;56.40;;;;;;5032918;28;20399;-72
2022/03/29 10:51:43;;;;;;;6.85;3.33;;;19.60;56.40;;;;;;5031604;28;20021;-72
2022/03/29 10:54:38;;;;;;;7.80;3.90;;;19.60;56.40;;;;;;5012633;28;20030;-72
2022/03/29 10:57:16;;;;;;;5.22;3.20;;;19.60;56.10;;;;;;5011946;28;20071;-72
2022/03/29 10:59:42;;;;;;;6.70;3.10;;;19.60;56.40;;;;;;5012951;28;20084;-72
2022/03/29 11:02:21;;;;;;;4.00;3.08;;;19.60;56.40;;;;;;5011785;28;20026;-72
2022/03/29 11:05:05;;;;;;;4.82;3.30;;;19.60;56.30;;;;;;5011795;28;20037;-72
2022/03/29 11:07:39;;;;;;;4.45;3.38;;;19.60;56.10;;;;;;5011756;28;20018;-72
2022/03/29 11:10:16;;;;;;;4.32;3.22;;;19.60;56.30;;;;;;5011600;28;20449;-72
2022/03/29 11:12:43;;;;;;;5.35;3.35;;;19.60;56.30;;;;;;5012733;28;20022;-72
2022/03/29 11:15:24;;;;;;;4.75;3.08;;;19.60;56.30;;;;;;5011586;28;20057;-72
2022/03/29 11:17:54;;;;;;;7.57;3.47;;;19.70;56.10;;;;;;5012702;28;20117;-72
2022/03/29 11:20:29;;;;;;;4.25;3.28;;;19.60;56.30;;;;;;5011466;28;20022;-72
2022/03/29 11:23:06;;;;;;;4.30;3.22;;;19.60;56.10;;;;;;5011353;28;20045;-72
2022/03/29 11:25:52;;;;;;;6.57;3.50;;;19.70;56.20;;;;;;5029205;28;20113;-72
2022/03/29 11:28:17;;;;;;;7.00;3.17;;;19.70;56.10;;;;;;5030399;28;20095;-72
2022/03/29 11:30:43;;;;;;;5.07;3.17;;;19.60;56.30;;;;;;5032416;28;20480;-72
2022/03/29 11:33:09;;;;;;;5.90;3.42;;;19.60;56.30;;;;;;5031082;28;20434;-72
2022/03/29 11:35:36;;;;;;;7.55;3.70;;;19.60;56.30;;;;;;5032239;28;20514;-72
2022/03/29 11:38:08;;;;;;;5.20;3.47;;;19.60;56.20;;;;;;5031284;28;20025;-72
2022/03/29 11:40:34;;;;;;;6.13;3.83;;;19.70;56.20;;;;;;5032139;28;20026;-72
2022/03/29 11:43:00;;;;;;;6.32;3.53;;;19.60;56.20;;;;;;5017195;28;20053;-72
2022/03/29 11:45:27;;;;;;;5.72;3.53;;;19.60;56.10;;;;;;5035082;28;20029;-72
2022/03/29 11:47:56;;;;;;;4.38;3.25;;;19.60;56.20;;;;;;5035275;28;20034;-72
2022/03/29 11:50:29;;;;;;;5.80;3.58;;;19.60;56.10;;;;;;5034681;28;20045;-72
2022/03/29 11:52:54;;;;;;;5.82;3.40;;;19.70;56.10;;;;;;5036113;28;20017;-72
2022/03/29 11:55:20;;;;;;;5.93;3.40;;;19.60;56.10;;;;;;5034916;28;20372;-72
2022/03/29 11:57:46;;;;;;;4.45;3.17;;;19.70;56.20;;;;;;5034817;28;20061;-72
2022/03/29 12:00:25;;;;;;;5.13;3.50;;;19.70;56.10;;;;;;5035927;28;20036;-72
2022/03/29 12:02:51;;;;;;;6.70;3.25;;;19.70;56.90;;;;;;5018203;28;20029;-72
2022/03/29 12:05:24;;;;;;;4.05;3.28;;;19.60;56.10;;;;;;5035926;28;20025;-72
2022/03/29 12:07:55;;;;;;;6.05;3.33;;;19.70;56.10;;;;;;5036009;28;20018;-72
2022/03/29 12:10:29;;;;;;;7.38;3.22;;;19.70;56.10;;;;;;5035522;28;20033;-72
2022/03/29 12:12:55;;;;;;;7.28;3.20;;;19.70;56.10;;;;;;5034662;28;20108;-72
2022/03/29 12:15:21;;;;;;;4.97;3.45;;;19.60;56.10;;;;;;5034558;28;20117;-72
2022/03/29 12:18:40;;;;;;;6.30;3.75;;;19.70;56.20;;;;;;5034421;28;20025;-72
2022/03/29 12:20:42;;;;;;;5.03;3.35;;;19.70;56.00;;;;;;5035417;28;20033;-72
2022/03/29 12:23:27;;;;;;;4.68;3.15;;;19.60;56.10;;;;;;5034455;28;20026;-72
2022/03/29 12:25:53;;;;;;;5.22;3.05;;;19.70;56.10;;;;;;5035691;28;20033;-72
2022/03/29 12:28:19;;;;;;;4.15;3.08;;;19.70;56.20;;;;;;5033944;28;20438;-72
2022/03/29 12:30:45;;;;;;;5.82;3.30;;;19.70;56.10;;;;;;5034341;28;20048;-72
2022/03/29 12:33:11;;;;;;;5.80;3.38;;;19.70;56.10;;;;;;5034503;28;20025;-72
2022/03/29 12:35:37;;;;;;;4.55;3.10;;;19.70;56.10;;;;;;5034168;28;20105;-72
2022/03/29 12:38:04;;;;;;;4.00;3.22;;;19.70;56.10;;;;;;5035351;28;20021;-72
2022/03/29 12:40:29;;;;;;;5.05;3.08;;;19.70;56.10;;;;;;5033776;28;20036;-72
2022/03/29 12:43:04;;;;;;;5.53;3.35;;;19.70;56.10;;;;;;5033473;28;20049;-72
2022/03/29 12:45:30;;;;;;;5.97;3.00;;;19.70;56.00;;;;;;5032405;28;20025;-72
2022/03/29 12:47:56;;;;;;;6.15;3.45;;;19.70;56.10;;;;;;5032847;28;20032;-72
2022/03/29 12:50:22;;;;;;;6.53;3.53;;;19.70;56.10;;;;;;5033928;28;20045;-72
2022/03/29 12:52:48;;;;;;;4.43;2.90;;;19.70;56.00;;;;;;5025717;28;20110;-72
2022/03/29 12:55:18;;;;;;;5.30;3.45;;;19.70;56.00;;;;;;5014038;28;20073;-72
2022/03/29 12:57:45;;;;;;;4.50;3.25;;;19.70;56.00;;;;;;5012897;28;20065;-72